CheckWX is a tool to help pilots better visualize weather data.  It is not intended as a substitute for an official pre-flight weather briefing.

05:35:05 UTC

PACV TAF
Merle K (Mudhole) Smith Airport
Cordova, Alaska, USA
PACV 180118Z 1801/1824 VRB06KT 6SM -RA BKN025 OVC050 TEMPO 1801/1804 2SM RA BKN015 FM180600 VRB05KT P6SM OVC050

Jun-18@
01:00 UTC

Jun-18 @ 01:00 UTC

Jun-18@
06:00 UTC

Jun-18 @ 06:00 UTC

PACV 180118Z 1801/1824 VRB06KT 6SM -RA BKN025 OVC050
Wind
  • Variable at 6 KTS
Conditions
Light Rain
Cloud Levels
  • Broken at 2,500' AGL
  • Overcast at 5,000' AGL

Jun-18@
01:00 UTC

Jun-18 @ 01:00 UTC

Jun-18@
04:00 UTC

Jun-18 @ 04:00 UTC

TEMPO 1801/1804 2SM RA BKN015

Expired

Conditions
Rain
Cloud Levels
  • Broken at 1,500' AGL

Jun-18@
06:00 UTC

Jun-18 @ 06:00 UTC

Jun-19@
00:00 UTC

Jun-19 @ 00:00 UTC

FM180600 VRB05KT P6SM OVC050

From

From Standard forecast or significant change

Wind
  • Variable at 5 KTS
Cloud Levels
  • Overcast at 5,000' AGL